Time;durP1;ratioP1;P1;durP2;ratioP2;P2;SDS_P1;SDS_P2;PMS_P1;PMS_P2;Temp;Humidity;BMP_temperature;BMP_pressure;BME280_temperature;BME280_humidity;BME280_pressure;Samples;Min_cycle;Max_cycle;Signal;HPM_P1;HPM_P2
2023/10/21 00:00:37;;;;;;;;;;;;;;;13.28;nan;99305.25;4962980;28;19922;-83
2023/10/21 00:03:06;;;;;;;;;;;;;;;13.28;nan;99310.63;4965115;28;19921;-84
2023/10/21 00:05:40;;;;;;;;;;;;;;;13.30;nan;99306.56;4964382;28;20016;-84
2023/10/21 00:08:06;;;;;;;;;;;;;;;13.28;nan;99318.69;4962524;28;20416;-84
2023/10/21 00:10:33;;;;;;;;;;;;;;;13.29;nan;99334.56;4960921;28;19926;-84
2023/10/21 00:13:00;;;;;;;;;;;;;;;13.32;nan;99356.56;4963498;28;19996;-83
2023/10/21 00:15:25;;;;;;;;;;;;;;;13.30;nan;99363.06;4962862;28;19925;-84
2023/10/21 00:17:53;;;;;;;;;;;;;;;13.32;nan;99370.81;4959220;28;20424;-83
2023/10/21 00:20:19;;;;;;;;;;;;;;;13.33;nan;99372.41;4968382;28;19948;-84
2023/10/21 00:22:46;;;;;;;;;;;;;;;13.36;nan;99381.78;4969403;28;20410;-84
2023/10/21 00:25:18;;;;;;;;;;;;;;;13.41;nan;99389.72;4968618;28;20367;-84
2023/10/21 00:27:46;;;;;;;;;;;;;;;13.42;nan;99388.63;4965554;28;20078;-84
2023/10/21 00:30:13;;;;;;;;;;;;;;;13.45;nan;99377.28;4964441;28;20701;-84
2023/10/21 00:32:40;;;;;;;;;;;;;;;13.48;nan;99379.38;4964301;28;20421;-83
2023/10/21 00:35:06;;;;;;;;;;;;;;;13.53;nan;99385.44;4966066;28;20008;-83
2023/10/21 00:37:33;;;;;;;;;;;;;;;13.52;nan;99375.78;4972126;28;19926;-84
2023/10/21 00:40:00;;;;;;;;;;;;;;;13.53;nan;99371.19;4968697;28;19918;-83
2023/10/21 00:42:27;;;;;;;;;;;;;;;13.57;nan;99361.41;4963216;28;19922;-85
2023/10/21 00:44:59;;;;;;;;;;;;;;;13.57;nan;99354.16;4965241;28;20012;-84
2023/10/21 00:47:25;;;;;;;;;;;;;;;13.54;nan;99354.75;4969102;28;19952;-84
2023/10/21 00:49:52;;;;;;;;;;;;;;;13.56;nan;99354.44;4972328;28;19957;-84
2023/10/21 00:52:19;;;;;;;;;;;;;;;13.54;nan;99368.22;4985493;28;19926;-84
2023/10/21 00:54:56;;;;;;;;;;;;;;;13.54;nan;99356.66;4973037;28;20020;-84
2023/10/21 00:57:27;;;;;;;;;;;;;;;13.54;nan;99376.28;4966588;28;20009;-84
2023/10/21 01:00:01;;;;;;;;;;;;;;;13.56;nan;99392.91;4970804;28;20012;-83
2023/10/21 01:02:27;;;;;;;;;;;;;;;13.57;nan;99394.50;4972514;28;20005;-84
2023/10/21 01:04:53;;;;;;;;;;;;;;;13.58;nan;99409.56;4969473;28;19918;-84
2023/10/21 01:07:19;;;;;;;;;;;;;;;13.64;nan;99393.28;4966729;28;19921;-84
2023/10/21 01:09:45;;;;;;;;;;;;;;;13.62;nan;99364.00;4969307;28;20032;-85
2023/10/21 01:12:11;;;;;;;;;;;;;;;13.61;nan;99363.19;4974776;28;20066;-85
2023/10/21 01:14:38;;;;;;;;;;;;;;;13.61;nan;99395.50;4970991;28;19958;-84
2023/10/21 01:17:04;;;;;;;;;;;;;;;13.63;nan;99376.34;4964885;28;19948;-84
2023/10/21 01:19:31;;;;;;;;;;;;;;;13.67;nan;99376.56;4971154;28;19926;-84
2023/10/21 01:22:22;;;;;;;;;;;;;;;13.70;nan;99389.41;4966337;28;20342;-83
2023/10/21 01:24:49;;;;;;;;;;;;;;;13.69;nan;99401.28;4969813;28;20372;-84
2023/10/21 01:27:16;;;;;;;;;;;;;;;13.70;nan;99392.91;4969426;28;19932;-84
2023/10/21 01:29:42;;;;;;;;;;;;;;;13.68;nan;99367.41;4963915;28;19922;-84
2023/10/21 01:32:10;;;;;;;;;;;;;;;13.71;nan;99391.00;4966598;28;19932;-83
2023/10/21 01:34:35;;;;;;;;;;;;;;;13.73;nan;99413.84;4950589;28;20330;-84
2023/10/21 01:37:03;;;;;;;;;;;;;;;13.76;nan;99401.66;4965137;28;19918;-84
2023/10/21 01:39:34;;;;;;;;;;;;;;;13.79;nan;99384.91;4962959;28;19933;-84
2023/10/21 01:42:08;;;;;;;;;;;;;;;13.82;nan;99370.84;4966415;28;19926;-85
2023/10/21 01:44:35;;;;;;;;;;;;;;;13.83;nan;99375.16;4962922;28;19922;-85
2023/10/21 01:47:04;;;;;;;;;;;;;;;13.85;nan;99387.22;4966456;28;19951;-84
2023/10/21 01:49:32;;;;;;;;;;;;;;;13.87;nan;99398.47;4965390;28;20622;-84
2023/10/21 01:51:57;;;;;;;;;;;;;;;13.85;nan;99399.88;4955008;28;20554;-84
2023/10/21 01:54:25;;;;;;;;;;;;;;;13.86;nan;99406.84;4967560;28;20367;-85
2023/10/21 01:56:53;;;;;;;;;;;;;;;13.89;nan;99390.09;4966939;28;20416;-84
2023/10/21 01:59:29;;;;;;;;;;;;;;;13.90;nan;99375.53;4963278;28;19926;-85
2023/10/21 02:01:56;;;;;;;;;;;;;;;13.92;nan;99389.47;4965847;28;20013;-84
2023/10/21 02:04:27;;;;;;;;;;;;;;;13.94;nan;99375.69;4963229;28;20106;-84
2023/10/21 02:06:57;;;;;;;;;;;;;;;13.95;nan;99371.91;4962337;28;20032;-84
2023/10/21 02:09:25;;;;;;;;;;;;;;;13.95;nan;99380.78;4963566;28;19977;-84
2023/10/21 02:11:57;;;;;;;;;;;;;;;13.90;nan;99380.91;4965322;28;19937;-84
2023/10/21 02:14:23;;;;;;;;;;;;;;;13.89;nan;99393.56;4963321;28;19926;-84
2023/10/21 02:16:51;;;;;;;;;;;;;;;13.89;nan;99395.47;4961652;28;19926;-84
2023/10/21 02:19:21;;;;;;;;;;;;;;;13.91;nan;99390.56;4966388;28;19981;-84
2023/10/21 02:21:48;;;;;;;;;;;;;;;13.93;nan;99406.44;4966125;28;19933;-84
2023/10/21 02:24:13;;;;;;;;;;;;;;;13.96;nan;99416.59;4965123;28;19922;-84
2023/10/21 02:26:41;;;;;;;;;;;;;;;13.98;nan;99407.09;4967235;28;19929;-85
2023/10/21 02:29:10;;;;;;;;;;;;;;;13.99;nan;99406.00;4972334;28;19967;-84
2023/10/21 02:31:37;;;;;;;;;;;;;;;14.01;nan;99406.53;4967318;28;20379;-85
2023/10/21 02:34:08;;;;;;;;;;;;;;;14.02;nan;99418.09;4965705;28;19921;-84
2023/10/21 02:36:35;;;;;;;;;;;;;;;14.02;nan;99426.97;4972682;28;19949;-84
2023/10/21 02:39:01;;;;;;;;;;;;;;;14.01;nan;99421.88;4968198;28;20116;-85
2023/10/21 02:41:27;;;;;;;;;;;;;;;14.02;nan;99418.09;4964372;28;19929;-85
2023/10/21 02:43:53;;;;;;;;;;;;;;;14.04;nan;99416.69;4966103;28;19922;-85
2023/10/21 02:46:19;;;;;;;;;;;;;;;14.04;nan;99408.59;4964154;28;19926;-84
2023/10/21 02:48:48;;;;;;;;;;;;;;;14.00;nan;99415.66;4966284;28;19976;-84
2023/10/21 02:51:17;;;;;;;;;;;;;;;14.00;nan;99420.25;4964697;28;19933;-84
2023/10/21 02:53:46;;;;;;;;;;;;;;;14.00;nan;99445.28;4967931;28;20443;-85
2023/10/21 02:56:17;;;;;;;;;;;;;;;14.03;nan;99450.09;4968613;28;20443;-85
2023/10/21 02:58:42;;;;;;;;;;;;;;;14.06;nan;99454.09;4965153;28;19938;-84
2023/10/21 03:01:15;;;;;;;;;;;;;;;14.07;nan;99450.28;4963497;28;20006;-85
2023/10/21 03:03:47;;;;;;;;;;;;;;;14.04;nan;99456.28;4965066;28;19922;-83
2023/10/21 03:06:12;;;;;;;;;;;;;;;14.05;nan;99453.28;4962634;28;19926;-84
2023/10/21 03:08:38;;;;;;;;;;;;;;;14.08;nan;99463.44;4968368;28;19980;-84
2023/10/21 03:11:05;;;;;;;;;;;;;;;14.12;nan;99447.47;4969015;28;20283;-84
2023/10/21 03:13:31;;;;;;;;;;;;;;;14.12;nan;99442.88;4967387;28;19922;-84
2023/10/21 03:15:57;;;;;;;;;;;;;;;14.11;nan;99454.75;4965474;28;20293;-84
2023/10/21 03:18:28;;;;;;;;;;;;;;;14.11;nan;99446.69;4967312;28;19922;-84
2023/10/21 03:20:54;;;;;;;;;;;;;;;14.12;nan;99444.78;4964406;28;20011;-85
2023/10/21 03:23:20;;;;;;;;;;;;;;;14.13;nan;99454.44;4961432;28;19930;-84
2023/10/21 03:26:07;;;;;;;;;;;;;;;14.13;nan;99466.03;4968883;28;19924;-85
2023/10/21 03:28:36;;;;;;;;;;;;;;;14.15;nan;99453.03;4969605;28;19926;-84
2023/10/21 03:31:07;;;;;;;;;;;;;;;14.19;nan;99454.06;4964536;28;19937;-85
2023/10/21 03:33:33;;;;;;;;;;;;;;;14.24;nan;99455.03;4964523;28;20378;-85
2023/10/21 03:36:00;;;;;;;;;;;;;;;14.23;nan;99454.25;4968107;28;19929;-84
2023/10/21 03:38:27;;;;;;;;;;;;;;;14.27;nan;99454.44;4958013;28;19966;-85
2023/10/21 03:40:58;;;;;;;;;;;;;;;14.29;nan;99458.41;4967661;28;19965;-85
2023/10/21 03:43:27;;;;;;;;;;;;;;;14.33;nan;99461.28;4967038;28;20485;-84
2023/10/21 03:45:56;;;;;;;;;;;;;;;14.34;nan;99462.88;4968352;28;20400;-84
2023/10/21 03:48:22;;;;;;;;;;;;;;;14.32;nan;99468.56;4966234;28;20329;-85
2023/10/21 03:50:49;;;;;;;;;;;;;;;14.31;nan;99471.56;4967608;28;20386;-85
2023/10/21 03:53:16;;;;;;;;;;;;;;;14.32;nan;99484.75;4966887;28;19961;-85
2023/10/21 03:55:44;;;;;;;;;;;;;;;14.34;nan;99476.34;4968137;28;20356;-85
2023/10/21 03:58:11;;;;;;;;;;;;;;;14.36;nan;99495.69;4967102;28;19926;-85
2023/10/21 04:00:38;;;;;;;;;;;;;;;14.37;nan;99483.84;4968521;28;19925;-85
2023/10/21 04:03:04;;;;;;;;;;;;;;;14.33;nan;99480.94;4971511;28;19969;-85
2023/10/21 04:05:32;;;;;;;;;;;;;;;14.32;nan;99490.13;4969398;28;20329;-85
2023/10/21 04:07:59;;;;;;;;;;;;;;;14.26;nan;99494.03;4964697;28;21874;-85
2023/10/21 04:10:30;;;;;;;;;;;;;;;14.24;nan;99500.84;4969585;28;19922;-85
2023/10/21 04:12:56;;;;;;;;;;;;;;;14.26;nan;99501.31;4965602;28;20386;-85
2023/10/21 04:15:23;;;;;;;;;;;;;;;14.26;nan;99510.22;4968608;28;20334;-85
2023/10/21 04:17:54;;;;;;;;;;;;;;;14.31;nan;99507.41;4968339;28;19936;-84
2023/10/21 04:20:23;;;;;;;;;;;;;;;14.35;nan;99504.88;4975694;28;19918;-85
2023/10/21 04:22:49;;;;;;;;;;;;;;;14.36;nan;99501.09;4969836;28;19921;-85
2023/10/21 04:25:17;;;;;;;;;;;;;;;14.36;nan;99495.69;4955227;28;19933;-85
2023/10/21 04:27:43;;;;;;;;;;;;;;;14.36;nan;99484.91;4970835;28;19922;-85
2023/10/21 04:30:08;;;;;;;;;;;;;;;14.36;nan;99485.75;4961803;28;19928;-85
2023/10/21 04:32:37;;;;;;;;;;;;;;;14.37;nan;99503.50;4971921;28;19918;-85
2023/10/21 04:35:08;;;;;;;;;;;;;;;14.40;nan;99504.78;4973188;28;19945;-85
2023/10/21 04:37:34;;;;;;;;;;;;;;;14.43;nan;99506.88;4966972;28;20012;-85
2023/10/21 04:40:00;;;;;;;;;;;;;;;14.44;nan;99498.53;4955818;28;19926;-85
2023/10/21 04:42:26;;;;;;;;;;;;;;;14.46;nan;99500.91;4972349;28;19925;-84
2023/10/21 04:44:57;;;;;;;;;;;;;;;14.47;nan;99494.41;4972519;28;20496;-85
2023/10/21 04:47:25;;;;;;;;;;;;;;;14.48;nan;99496.00;4971519;28;19928;-85
2023/10/21 04:49:56;;;;;;;;;;;;;;;14.47;nan;99486.34;4974597;28;21605;-85
2023/10/21 04:52:22;;;;;;;;;;;;;;;14.48;nan;99487.91;4964063;28;19926;-85
2023/10/21 04:54:50;;;;;;;;;;;;;;;14.48;nan;99485.22;4974687;28;20428;-85
2023/10/21 04:57:18;;;;;;;;;;;;;;;14.49;nan;99494.91;4964799;28;19960;-85
2023/10/21 04:59:46;;;;;;;;;;;;;;;14.52;nan;99497.00;4969722;28;20229;-85
2023/10/21 05:02:21;;;;;;;;;;;;;;;14.52;nan;99483.50;4968034;28;19921;-85
2023/10/21 05:04:48;;;;;;;;;;;;;;;14.50;nan;99489.22;4966286;28;19918;-85
2023/10/21 05:07:16;;;;;;;;;;;;;;;14.50;nan;99491.91;4966926;28;19921;-85
2023/10/21 05:09:42;;;;;;;;;;;;;;;14.51;nan;99498.88;4970593;28;20607;-85
2023/10/21 05:12:12;;;;;;;;;;;;;;;14.55;nan;99501.00;4968651;28;19926;-85
2023/10/21 05:14:42;;;;;;;;;;;;;;;14.56;nan;99499.91;4966700;28;19996;-85
2023/10/21 05:17:10;;;;;;;;;;;;;;;14.61;nan;99508.66;4968213;28;19918;-85
2023/10/21 05:19:42;;;;;;;;;;;;;;;14.62;nan;99510.25;4970519;28;19982;-85
2023/10/21 05:22:11;;;;;;;;;;;;;;;14.64;nan;99508.03;4968784;28;20436;-85
2023/10/21 05:24:39;;;;;;;;;;;;;;;14.65;nan;99515.03;4968520;28;20257;-85
2023/10/21 05:27:09;;;;;;;;;;;;;;;14.65;nan;99514.22;4967103;28;19926;-85
2023/10/21 05:29:37;;;;;;;;;;;;;;;14.63;nan;99516.44;4963562;28;19925;-85
2023/10/21 05:32:05;;;;;;;;;;;;;;;14.63;nan;99521.81;4966266;28;19933;-85
2023/10/21 05:34:33;;;;;;;;;;;;;;;14.64;nan;99539.59;4970478;28;20000;-85
2023/10/21 05:36:59;;;;;;;;;;;;;;;14.65;nan;99516.91;4972391;28;20008;-85
2023/10/21 05:39:26;;;;;;;;;;;;;;;14.65;nan;99539.28;4967765;28;19934;-85
2023/10/21 05:41:55;;;;;;;;;;;;;;;14.65;nan;99552.75;4968776;28;20366;-85
2023/10/21 05:44:24;;;;;;;;;;;;;;;14.63;nan;99548.78;4971430;28;19949;-85
2023/10/21 05:46:51;;;;;;;;;;;;;;;14.63;nan;99554.16;4970287;28;20347;-84
2023/10/21 05:49:19;;;;;;;;;;;;;;;14.63;nan;99559.56;4965905;28;20013;-85
2023/10/21 05:51:49;;;;;;;;;;;;;;;14.60;nan;99560.97;4967312;28;19925;-85
2023/10/21 05:54:20;;;;;;;;;;;;;;;14.63;nan;99564.97;4971107;28;19933;-85
2023/10/21 05:56:49;;;;;;;;;;;;;;;14.68;nan;99567.53;4972672;28;19954;-85
2023/10/21 05:59:16;;;;;;;;;;;;;;;14.71;nan;99575.81;4972173;28;19942;-85
2023/10/21 06:01:42;;;;;;;;;;;;;;;14.73;nan;99576.31;4965569;28;20846;-86
2023/10/21 06:04:08;;;;;;;;;;;;;;;14.76;nan;99586.50;4968086;28;20401;-85
2023/10/21 06:06:44;;;;;;;;;;;;;;;14.77;nan;99587.28;4971593;28;19922;-86
2023/10/21 06:09:12;;;;;;;;;;;;;;;14.77;nan;99587.28;4970486;28;19925;-87
2023/10/21 06:11:45;;;;;;;;;;;;;;;14.77;nan;99584.59;4970223;28;20417;-86
2023/10/21 06:14:12;;;;;;;;;;;;;;;14.75;nan;99586.81;4969563;28;19921;-86
2023/10/21 06:16:43;;;;;;;;;;;;;;;14.75;nan;99590.28;4965901;28;19925;-86
2023/10/21 06:19:09;;;;;;;;;;;;;;;14.76;nan;99602.66;4966394;28;19922;-85
2023/10/21 06:21:36;;;;;;;;;;;;;;;14.78;nan;99605.06;4970465;28;19922;-86
2023/10/21 06:24:07;;;;;;;;;;;;;;;14.79;nan;99606.66;4969893;28;20147;-87
2023/10/21 06:26:34;;;;;;;;;;;;;;;14.79;nan;99603.97;4968031;28;20016;-86
2023/10/21 06:28:59;;;;;;;;;;;;;;;14.78;nan;99613.94;4964926;28;20329;-87
2023/10/21 06:31:28;;;;;;;;;;;;;;;14.73;nan;99615.97;4967307;28;19926;-86
2023/10/21 06:34:11;;;;;;;;;;;;;;;14.70;nan;99608.47;4972442;28;19922;-86
2023/10/21 06:36:40;;;;;;;;;;;;;;;14.70;nan;99593.09;4969094;28;20012;-86
2023/10/21 06:39:06;;;;;;;;;;;;;;;14.75;nan;99611.88;4968336;28;19961;-86
2023/10/21 06:41:36;;;;;;;;;;;;;;;14.75;nan;99617.25;4968804;28;20009;-86
2023/10/21 06:44:10;;;;;;;;;;;;;;;14.77;nan;99631.22;4967876;28;19968;-87
2023/10/21 06:46:38;;;;;;;;;;;;;;;14.82;nan;99630.31;4959486;28;20165;-88
2023/10/21 06:49:05;;;;;;;;;;;;;;;14.88;nan;99626.41;4968806;28;19918;-86
2023/10/21 06:51:32;;;;;;;;;;;;;;;14.89;nan;99628.00;4970247;28;19941;-88
2023/10/21 06:54:00;;;;;;;;;;;;;;;14.89;nan;99616.41;4970411;28;19960;-86
2023/10/21 06:56:25;;;;;;;;;;;;;;;14.88;nan;99617.50;4971814;28;20389;-87
2023/10/21 06:58:52;;;;;;;;;;;;;;;14.88;nan;99610.22;4973346;28;19934;-87
2023/10/21 07:01:18;;;;;;;;;;;;;;;14.92;nan;99622.00;4967195;28;19926;-87
2023/10/21 07:03:45;;;;;;;;;;;;;;;14.98;nan;99625.38;4969354;28;20413;-87
2023/10/21 07:06:11;;;;;;;;;;;;;;;15.03;nan;99633.34;4968194;28;20017;-87
2023/10/21 07:08:37;;;;;;;;;;;;;;;15.08;nan;99634.06;4968335;28;20046;-87
2023/10/21 07:11:06;;;;;;;;;;;;;;;15.14;nan;99629.34;4968007;28;19922;-87
2023/10/21 07:13:42;;;;;;;;;;;;;;;15.15;nan;99633.63;4971391;28;20036;-86
2023/10/21 07:16:10;;;;;;;;;;;;;;;15.17;nan;99619.81;4975423;28;19925;-86
2023/10/21 07:18:37;;;;;;;;;;;;;;;15.18;nan;99635.72;4974960;28;19922;-85
2023/10/21 07:21:06;;;;;;;;;;;;;;;15.23;nan;99632.88;4974625;28;20369;-86
2023/10/21 07:23:33;;;;;;;;;;;;;;;15.26;nan;99621.50;4976496;28;19925;-86
2023/10/21 07:25:59;;;;;;;;;;;;;;;15.29;nan;99628.97;4977997;28;19922;-86
2023/10/21 07:28:26;;;;;;;;;;;;;;;15.33;nan;99651.53;4972519;28;19933;-86
2023/10/21 07:30:54;;;;;;;;;;;;;;;15.38;nan;99642.53;4974577;28;19969;-86
2023/10/21 07:33:27;;;;;;;;;;;;;;;15.40;nan;99643.81;4973856;28;20013;-87
2023/10/21 07:35:53;;;;;;;;;;;;;;;15.40;nan;99632.22;4977889;28;20160;-86
2023/10/21 07:38:32;;;;;;;;;;;;;;;15.39;nan;99639.53;4972153;28;19934;-86
2023/10/21 07:41:11;;;;;;;;;;;;;;;15.41;nan;99641.91;4969518;28;19926;-87
2023/10/21 07:43:41;;;;;;;;;;;;;;;15.41;nan;99658.91;4966894;28;20325;-86
2023/10/21 07:46:13;;;;;;;;;;;;;;;15.43;nan;99653.19;4964573;28;19922;-85
2023/10/21 07:48:49;;;;;;;;;;;;;;;15.39;nan;99663.81;4966590;28;19957;-87
2023/10/21 07:51:18;;;;;;;;;;;;;;;15.37;nan;99671.41;4962393;28;19930;-85
2023/10/21 07:53:45;;;;;;;;;;;;;;;15.39;nan;99663.81;4964961;28;19929;-87
2023/10/21 07:56:13;;;;;;;;;;;;;;;15.40;nan;99670.81;4965726;28;20398;-85
2023/10/21 07:59:06;;;;;;;;;;;;;;;15.43;nan;99674.78;4970197;28;19937;-87
2023/10/21 08:01:32;;;;;;;;;;;;;;;15.47;nan;99675.00;4968722;28;19984;-84
2023/10/21 08:03:58;;;;;;;;;;;;;;;15.52;nan;99685.66;4961527;28;19980;-84
2023/10/21 08:06:28;;;;;;;;;;;;;;;15.57;nan;99691.72;4964177;28;19926;-85
2023/10/21 08:08:54;;;;;;;;;;;;;;;15.60;nan;99691.13;4961849;28;19989;-84
2023/10/21 08:11:21;;;;;;;;;;;;;;;15.62;nan;99682.75;4965756;28;19934;-85
2023/10/21 08:13:56;;;;;;;;;;;;;;;15.59;nan;99689.56;4967093;28;19968;-86
2023/10/21 08:16:25;;;;;;;;;;;;;;;15.59;nan;99694.16;4965299;28;19926;-88
2023/10/21 08:18:54;;;;;;;;;;;;;;;15.62;nan;99698.97;4968670;28;19976;-87
2023/10/21 08:21:20;;;;;;;;;;;;;;;15.64;nan;99689.44;4972598;28;19926;-87
2023/10/21 08:23:45;;;;;;;;;;;;;;;15.69;nan;99677.72;4969919;28;19922;-85
2023/10/21 08:26:12;;;;;;;;;;;;;;;15.71;nan;99691.72;4963230;28;20416;-85
2023/10/21 08:28:55;;;;;;;;;;;;;;;15.76;nan;99683.47;4964671;28;20035;-88
2023/10/21 08:31:22;;;;;;;;;;;;;;;15.80;nan;99683.66;4965331;28;19926;-87
2023/10/21 08:33:48;;;;;;;;;;;;;;;15.79;nan;99687.47;4968221;28;20015;-86
2023/10/21 08:36:18;;;;;;;;;;;;;;;15.77;nan;99698.56;4966354;28;20394;-85
2023/10/21 08:38:44;;;;;;;;;;;;;;;15.78;nan;99694.75;4970074;28;20008;-87
2023/10/21 08:41:11;;;;;;;;;;;;;;;15.76;nan;99710.47;4956401;28;20387;-85
2023/10/21 08:43:37;;;;;;;;;;;;;;;15.76;nan;99726.69;4972273;28;19953;-86
2023/10/21 08:46:27;;;;;;;;;;;;;;;15.77;nan;99730.97;4965720;28;19998;-85
2023/10/21 08:48:56;;;;;;;;;;;;;;;15.81;nan;99714.97;4966399;28;20383;-85
2023/10/21 08:51:44;;;;;;;;;;;;;;;15.83;nan;99732.47;4969089;28;19930;-87
2023/10/21 08:54:13;;;;;;;;;;;;;;;15.84;nan;99715.16;4966222;28;19922;-86
2023/10/21 08:57:00;;;;;;;;;;;;;;;15.90;nan;99723.91;4968087;28;20610;-85
2023/10/21 08:59:28;;;;;;;;;;;;;;;15.95;nan;99723.78;4971064;28;19969;-85
2023/10/21 09:01:56;;;;;;;;;;;;;;;15.96;nan;99725.38;4972123;28;19977;-85
2023/10/21 09:04:24;;;;;;;;;;;;;;;15.97;nan;99727.78;4973100;28;19922;-86
2023/10/21 09:06:54;;;;;;;;;;;;;;;16.00;nan;99726.38;4966305;28;19922;-86
2023/10/21 09:09:26;;;;;;;;;;;;;;;16.04;nan;99727.34;4970594;28;20141;-86
2023/10/21 09:12:14;;;;;;;;;;;;;;;16.11;nan;99724.19;4970914;28;19922;-86
2023/10/21 09:14:58;;;;;;;;;;;;;;;16.15;nan;99727.88;4974429;28;19925;-86
2023/10/21 09:17:45;;;;;;;;;;;;;;;16.21;nan;99732.06;4971027;28;20248;-87
2023/10/21 09:20:13;;;;;;;;;;;;;;;16.24;nan;99743.03;4972543;28;20157;-85
2023/10/21 09:22:43;;;;;;;;;;;;;;;16.26;nan;99745.44;4972559;28;19926;-87
2023/10/21 09:25:23;;;;;;;;;;;;;;;16.30;nan;99738.31;4973987;28;19926;-87
2023/10/21 09:27:55;;;;;;;;;;;;;;;16.36;nan;99745.19;4975189;28;20216;-86
2023/10/21 09:30:25;;;;;;;;;;;;;;;16.40;nan;99748.84;4979506;28;19949;-89
2023/10/21 09:33:03;;;;;;;;;;;;;;;16.39;nan;99751.88;4975623;28;19964;-86
2023/10/21 09:35:31;;;;;;;;;;;;;;;16.38;nan;99751.06;4971360;28;20289;-87
2023/10/21 09:38:31;;;;;;;;;;;;;;;16.41;nan;99750.44;4972207;28;19926;-88
2023/10/21 09:40:59;;;;;;;;;;;;;;;16.46;nan;99760.31;4972003;28;19922;-87
2023/10/21 09:43:28;;;;;;;;;;;;;;;16.49;nan;99759.69;4972725;28;19922;-87
2023/10/21 09:45:56;;;;;;;;;;;;;;;16.49;nan;99754.28;4976406;28;20412;-87
2023/10/21 09:48:25;;;;;;;;;;;;;;;16.50;nan;99753.97;4973994;28;19932;-86
2023/10/21 09:51:04;;;;;;;;;;;;;;;16.50;nan;99753.97;4971722;28;19973;-86
2023/10/21 09:53:45;;;;;;;;;;;;;;;16.48;nan;99763.50;4971906;28;20665;-87
2023/10/21 09:56:19;;;;;;;;;;;;;;;16.46;nan;99763.81;4973457;28;19949;-90
2023/10/21 09:58:53;;;;;;;;;;;;;;;16.49;nan;99765.91;4973405;28;20033;-88
2023/10/21 10:01:29;;;;;;;;;;;;;;;16.58;nan;99758.63;4978622;28;20012;-86
2023/10/21 10:03:59;;;;;;;;;;;;;;;16.71;nan;99758.88;4974516;28;20028;-89
2023/10/21 10:06:26;;;;;;;;;;;;;;;16.80;nan;99759.72;4974477;28;19937;-86
2023/10/21 10:09:06;;;;;;;;;;;;;;;16.85;nan;99765.75;4976347;28;20009;-88
2023/10/21 10:11:32;;;;;;;;;;;;;;;16.98;nan;99768.66;4977818;28;20048;-87
2023/10/21 10:13:58;;;;;;;;;;;;;;;17.18;nan;99768.88;4975649;28;20422;-86
2023/10/21 10:16:40;;;;;;;;;;;;;;;17.28;nan;99780.53;4974132;28;20349;-90
2023/10/21 10:19:09;;;;;;;;;;;;;;;17.38;nan;99777.50;4971102;28;20532;-86
2023/10/21 10:21:37;;;;;;;;;;;;;;;17.43;nan;99774.66;4973188;28;19918;-88
2023/10/21 10:24:04;;;;;;;;;;;;;;;17.50;nan;99772.28;4974141;28;19950;-87
2023/10/21 10:26:45;;;;;;;;;;;;;;;17.59;nan;99775.78;4976806;28;19924;-86
2023/10/21 10:29:25;;;;;;;;;;;;;;;17.69;nan;99785.53;4971685;28;20570;-87
2023/10/21 10:32:09;;;;;;;;;;;;;;;17.72;nan;99788.41;4971414;28;19926;-87
2023/10/21 10:34:36;;;;;;;;;;;;;;;17.70;nan;99793.34;4976680;28;19941;-87
2023/10/21 10:37:24;;;;;;;;;;;;;;;17.69;nan;99791.75;4973580;28;19956;-87
2023/10/21 10:39:54;;;;;;;;;;;;;;;17.80;nan;99793.03;4968972;28;19926;-86
2023/10/21 10:42:22;;;;;;;;;;;;;;;17.96;nan;99800.69;4973335;28;20767;-87
2023/10/21 10:45:03;;;;;;;;;;;;;;;18.11;nan;99803.69;4973304;28;19918;-89
2023/10/21 10:47:29;;;;;;;;;;;;;;;18.17;nan;99795.41;4971202;28;19929;-89
2023/10/21 10:49:58;;;;;;;;;;;;;;;18.17;nan;99798.13;4976388;28;19922;-87
2023/10/21 10:52:46;;;;;;;;;;;;;;;18.18;nan;99794.28;4969034;28;20217;-87
2023/10/21 10:55:31;;;;;;;;;;;;;;;18.16;nan;99802.75;4973010;28;19932;-88
2023/10/21 10:58:00;;;;;;;;;;;;;;;18.12;nan;99790.91;4976033;28;19921;-91
2023/10/21 11:00:26;;;;;;;;;;;;;;;18.10;nan;99795.88;4970234;28;19926;-91
2023/10/21 11:02:56;;;;;;;;;;;;;;;18.09;nan;99794.28;4971385;28;20303;-89
2023/10/21 11:05:23;;;;;;;;;;;;;;;18.21;nan;99799.06;4969357;28;20397;-89
2023/10/21 11:07:54;;;;;;;;;;;;;;;18.34;nan;99790.75;4973729;28;19932;-88
2023/10/21 11:10:22;;;;;;;;;;;;;;;18.50;nan;99801.88;4974099;28;19932;-86
2023/10/21 11:12:51;;;;;;;;;;;;;;;18.70;nan;99803.13;4969489;28;19922;-87
2023/10/21 11:15:17;;;;;;;;;;;;;;;18.87;nan;99807.69;4968923;28;20444;-87
2023/10/21 11:17:46;;;;;;;;;;;;;;;18.99;nan;99811.28;4968442;28;19923;-88
2023/10/21 11:20:13;;;;;;;;;;;;;;;19.04;nan;99809.53;4967581;28;20346;-89
2023/10/21 11:22:39;;;;;;;;;;;;;;;19.18;nan;99801.91;4977905;28;19989;-88
2023/10/21 11:25:07;;;;;;;;;;;;;;;19.35;nan;99803.75;4972019;28;21343;-87
2023/10/21 11:27:35;;;;;;;;;;;;;;;19.58;nan;99805.88;4968177;28;19960;-87
2023/10/21 11:30:08;;;;;;;;;;;;;;;19.80;nan;99809.38;4969604;28;19949;-88
2023/10/21 11:32:35;;;;;;;;;;;;;;;20.05;nan;99810.28;4967211;28;19961;-89
2023/10/21 11:35:02;;;;;;;;;;;;;;;20.27;nan;99809.88;4965386;28;19965;-86
2023/10/21 11:37:32;;;;;;;;;;;;;;;20.34;nan;99815.59;4968003;28;19937;-87
2023/10/21 11:40:00;;;;;;;;;;;;;;;20.33;nan;99807.78;4967756;28;19956;-89
2023/10/21 11:42:32;;;;;;;;;;;;;;;20.43;nan;99812.81;4970993;28;20422;-88
2023/10/21 11:45:11;;;;;;;;;;;;;;;20.60;nan;99815.34;4966706;28;19928;-89
2023/10/21 11:47:39;;;;;;;;;;;;;;;20.67;nan;99807.44;4968140;28;20294;-87
2023/10/21 11:50:12;;;;;;;;;;;;;;;20.66;nan;99816.72;4966855;28;20007;-88
2023/10/21 11:52:46;;;;;;;;;;;;;;;20.68;nan;99825.34;4970118;28;20390;-88
2023/10/21 12:18:08;;;;;;;;;;;;;;;20.95;nan;99853.06;4969636;28;19926;-88
2023/10/21 12:39:56;;;;;;;;;;;;;;;20.79;nan;99894.53;4975571;28;19933;-88
2023/10/21 12:42:28;;;;;;;;;;;;;;;20.86;nan;99894.00;4970756;28;19932;-89
2023/10/21 12:44:56;;;;;;;;;;;;;;;20.82;nan;99893.06;4973315;28;19922;-87
2023/10/21 12:47:23;;;;;;;;;;;;;;;20.83;nan;99891.16;4973882;28;19930;-88
2023/10/21 12:49:50;;;;;;;;;;;;;;;20.90;nan;99894.13;4974370;28;20446;-88
2023/10/21 12:52:21;;;;;;;;;;;;;;;20.95;nan;99902.84;4968568;28;20031;-87
2023/10/21 12:54:59;;;;;;;;;;;;;;;21.02;nan;99896.88;4972362;28;19940;-88
2023/10/21 12:57:27;;;;;;;;;;;;;;;21.10;nan;99901.41;4974143;28;19922;-87
2023/10/21 13:00:03;;;;;;;;;;;;;;;21.20;nan;99909.16;4970930;28;19926;-88
2023/10/21 13:02:40;;;;;;;;;;;;;;;21.27;nan;99909.41;4969626;28;19996;-88
2023/10/21 13:05:07;;;;;;;;;;;;;;;21.30;nan;99910.66;4973126;28;19949;-86
2023/10/21 13:07:34;;;;;;;;;;;;;;;21.32;nan;99913.81;4968018;28;20513;-87
2023/10/21 13:10:00;;;;;;;;;;;;;;;21.38;nan;99917.94;4966205;28;20382;-88
2023/10/21 13:12:27;;;;;;;;;;;;;;;21.40;nan;99921.13;4971586;28;19952;-88
2023/10/21 13:14:53;;;;;;;;;;;;;;;21.39;nan;99925.75;4969847;28;20220;-90
2023/10/21 13:17:20;;;;;;;;;;;;;;;21.38;nan;99937.81;4972727;28;19932;-88
2023/10/21 13:20:16;;;;;;;;;;;;;;;21.41;nan;99937.13;4968369;28;19996;-90
2023/10/21 13:22:59;;;;;;;;;;;;;;;21.40;nan;99940.97;4975960;28;19925;-87
2023/10/21 13:25:34;;;;;;;;;;;;;;;21.38;nan;99939.72;4977117;28;19932;-89
2023/10/21 13:28:05;;;;;;;;;;;;;;;21.39;nan;99942.13;4970853;28;19918;-87
2023/10/21 13:30:34;;;;;;;;;;;;;;;21.41;nan;99953.47;4970391;28;20016;-89
2023/10/21 13:33:04;;;;;;;;;;;;;;;21.42;nan;99952.34;4974855;28;19922;-89
2023/10/21 13:35:54;;;;;;;;;;;;;;;21.42;nan;99957.78;4974882;28;20395;-90
2023/10/21 13:38:22;;;;;;;;;;;;;;;21.44;nan;99965.63;4976827;28;19992;-88
2023/10/21 13:40:51;;;;;;;;;;;;;;;21.51;nan;99967.75;4975586;28;19921;-87
2023/10/21 13:43:21;;;;;;;;;;;;;;;21.55;nan;99977.66;4974091;28;19929;-89
2023/10/21 13:45:55;;;;;;;;;;;;;;;21.54;nan;99981.50;4976291;28;20445;-88
2023/10/21 13:48:22;;;;;;;;;;;;;;;21.55;nan;99988.56;4975387;28;19926;-88
2023/10/21 13:50:53;;;;;;;;;;;;;;;21.62;nan;99990.72;4976598;28;20405;-88
2023/10/21 13:53:26;;;;;;;;;;;;;;;21.74;nan;99993.47;4969926;28;20403;-87
2023/10/21 13:55:53;;;;;;;;;;;;;;;21.95;nan;99999.59;4979606;28;19918;-86
2023/10/21 13:58:26;;;;;;;;;;;;;;;22.19;nan;99998.00;4975440;28;19926;-88
2023/10/21 14:00:58;;;;;;;;;;;;;;;22.37;nan;100004.78;4978895;28;19925;-90
2023/10/21 14:03:26;;;;;;;;;;;;;;;22.59;nan;100003.44;4974402;28;19929;-91